Saturday, September 22, 2018, 10:36 PM EDT
Back to Local

KFWN, Sussex Airport

Location: Sussex, NJ, United States Lat: 41.2
Local Time: 10:36 PM EDT ( 2:36 GMT) Lon: -74.633
Time Zone: US/Eastern Elev: 419 ft

Show me the last for .
Show Decoded

2018-09-22 21:53 METAR KFWN 230153Z AUTO 00000KT 10SM CLR 14/13 A3022 RMK AO2 SLP233 T01390128 =
2018-09-22 20:53 METAR KFWN 230053Z AUTO 00000KT 10SM CLR 15/13 A3022 RMK AO2 SLP233 T01500128 =
2018-09-22 19:53 METAR KFWN 222353Z AUTO 34004KT 10SM FEW040 16/12 A3021 RMK AO2 SLP229 T01610117
                 10206 20161 53018 =
2018-09-22 18:53 METAR KFWN 222253Z AUTO 35003KT 10SM BKN041 17/13 A3020 RMK AO2 SLP223 T01720133
                 =
2018-09-22 17:53 METAR KFWN 222153Z AUTO 00000KT 10SM SCT043 18/13 A3017 RMK AO2 SLP215 T01830133
                 =
2018-09-22 16:53 METAR KFWN 222053Z AUTO 33003KT 10SM FEW041 20/12 A3016 RMK AO2 SLP211 T02000117
                 51000 =
2018-09-22 15:53 METAR KFWN 221953Z AUTO 00000KT 10SM CLR 19/11 A3016 RMK AO2 SLP210 T01940111 =
2018-09-22 14:53 METAR KFWN 221853Z AUTO 30006KT 10SM CLR 19/11 A3016 RMK AO2 SLP211 T01940106 =
2018-09-22 13:53 METAR KFWN 221753Z AUTO 34005KT 10SM CLR 18/11 A3016 RMK AO2 SLP211 T01830106
                 10194 20172 58005 =
2018-09-22 12:53 METAR KFWN 221653Z AUTO 34008KT 10SM CLR 19/11 A3017 RMK AO2 SLP214 T01890111 =
2018-09-22 11:53 METAR KFWN 221553Z AUTO 35007KT 10SM CLR 18/11 A3017 RMK AO2 SLP215 T01830111 =
2018-09-22 10:53 METAR KFWN 221453Z AUTO 01008KT 10SM CLR 17/11 A3017 RMK AO2 SLP216 T01720106
                 51026 =
2018-09-22 09:53 METAR KFWN 221353Z AUTO 02009KT 10SM SCT035 17/11 A3015 RMK AO2 SLP208 T01720111
                 =
2018-09-22 08:53 METAR KFWN 221253Z AUTO 32011G18KT 280V350 10SM SCT033 18/11 A3013 RMK AO2
                 SLP202 T01780111 =
2018-09-22 07:53 METAR KFWN 221153Z AUTO 34008G16KT 310V010 10SM CLR 18/13 A3010 RMK AO2 SLP190
                 60000 T01830128 10211 20178 51041 =
2018-09-22 06:53 METAR KFWN 221053Z AUTO 35005KT 10SM CLR 18/14 A3007 RMK AO2 SLP179 T01830144 =
2018-09-22 05:53 METAR KFWN 220953Z AUTO 32003KT 10SM CLR 21/17 A3002 RMK AO2 SLP163 T02060172 =
2018-09-22 04:53 METAR KFWN 220853Z AUTO 00000KT 5SM BR CLR 20/20 A2998 RMK AO2 SLP148 60000
                 T02000200 53013 =
2018-09-22 03:53 METAR KFWN 220753Z AUTO 00000KT 6SM BR FEW050 OVC065 21/21 A2996 RMK AO2 SLP142
                 T02060206 =
2018-09-22 02:53 METAR KFWN 220653Z AUTO VRB04KT 8SM BKN060 OVC080 21/21 A2995 RMK AO2
                 RAB08E30B33E45 SLP138 P0000 T02110206 =
2018-09-22 02:30 METAR KFWN 220630Z AUTO VRB04KT 9SM SCT014 SCT018 OVC055 21/21 A2995 RMK AO2
                 RAB08E30 P0000 T02110206 =
2018-09-22 01:53 METAR KFWN 220553Z AUTO VRB05KT 10SM OVC014 21/21 A2994 RMK AO2 RAB27E38 SLP135
                 P0000 60000 T02110206 10217 20211 56016 =
2018-09-22 00:53 METAR KFWN 220453Z AUTO 22006KT 10SM OVC014 22/20 A2994 RMK AO2 RAB43E52 SLP136
                 P0000 T02170200 402170172 =
2018-09-21 23:53 METAR KFWN 220353Z AUTO 22007KT 10SM OVC015 22/19 A2995 RMK AO2 SLP140 T02170194
                 =
2018-09-21 22:53 METAR KFWN 220253Z AUTO 22008KT 180V260 10SM OVC019 22/19 A2999 RMK AO2 RAE12
                 SLP151 P0000 60000 T02170194 51004 =

Support USWX by starting your Amazon purchase here.